Terminal Aerodrome Forecast
Issued by NWS Nashville, TN

Home | Current Version | Previous Version | Text Only | Print | Product List | Glossary On
Versions: 1 2 3 4 5 6 7 8 9 10 11 12 13 14 15 16 17 18 19 20 21 22 23 24 25 26 27 28 29 30 31 32 33 34 35 36 37
000
FTUS44 KOHX 182322
TAFBNA
TAF
KBNA 182322Z 1900/1924 00000KT P6SM SCT080 OVC200
     FM190800 11005KT 6SM -RA BR OVC025
     FM191300 12006KT 5SM -RA BR OVC015
     FM191900 14007KT 4SM -RA BR OVC007=

USA.gov is the U.S. government's official web portal to all federal, state and local government web resources and services.